createdAt,value
2022-10-22T00:00:47.044Z,95.40
2022-10-22T00:05:48.608Z,94.83
2022-10-22T00:10:50.166Z,94.41
2022-10-22T00:15:51.724Z,94.53
2022-10-22T00:20:53.247Z,94.28
2022-10-22T00:25:55.254Z,94.46
2022-10-22T00:31:00.512Z,94.89
2022-10-22T00:36:02.067Z,94.69
2022-10-22T00:41:03.603Z,95.02
2022-10-22T00:46:05.134Z,96.07
2022-10-22T00:51:08.040Z,95.88
2022-10-22T00:56:10.231Z,95.69
2022-10-22T01:01:16.913Z,95.98
2022-10-22T01:06:29.938Z,96.26
2022-10-22T01:11:43.528Z,95.60
2022-10-22T01:17:08.614Z,95.00
2022-10-22T01:22:26.214Z,94.75
2022-10-22T01:27:52.641Z,95.31
2022-10-22T01:33:03.769Z,94.89
2022-10-22T01:38:09.054Z,94.38
2022-10-22T01:43:11.445Z,94.67
2022-10-22T01:48:26.883Z,94.28
2022-10-22T01:53:41.251Z,94.46
2022-10-22T01:59:07.161Z,94.13
2022-10-22T02:04:19.824Z,93.93
2022-10-22T02:09:22.803Z,94.57
2022-10-22T02:14:25.638Z,95.29
2022-10-22T02:19:39.337Z,94.32
2022-10-22T02:24:40.880Z,94.26
2022-10-22T02:29:52.162Z,95.03
2022-10-22T02:34:54.611Z,94.75
2022-10-22T02:39:56.420Z,94.80
2022-10-22T02:44:57.898Z,94.35
2022-10-22T02:49:59.411Z,94.61
2022-10-22T02:55:00.939Z,94.54
2022-10-22T03:00:02.464Z,95.20
2022-10-22T03:05:05.004Z,95.07
2022-10-22T03:10:07.280Z,95.43
2022-10-22T03:15:09.075Z,95.10
2022-10-22T03:20:10.628Z,94.41
2022-10-22T03:25:15.314Z,94.21
2022-10-22T03:30:16.941Z,94.09
2022-10-22T03:35:18.469Z,94.60
2022-10-22T03:40:20.368Z,94.59
2022-10-22T03:45:21.900Z,95.59
2022-10-22T03:50:23.392Z,94.84
2022-10-22T03:55:24.955Z,95.38
2022-10-22T04:00:26.450Z,94.56
2022-10-22T04:05:27.959Z,95.10
2022-10-22T04:10:29.504Z,95.07
2022-10-22T04:15:32.513Z,95.52
2022-10-22T04:20:34.031Z,95.41
2022-10-22T04:25:35.567Z,95.03
2022-10-22T04:30:37.106Z,96.53
2022-10-22T04:35:39.933Z,95.50
2022-10-22T04:40:41.551Z,95.33
2022-10-22T04:45:43.065Z,95.82
2022-10-22T04:50:44.607Z,95.26
2022-10-22T04:55:46.103Z,95.71
2022-10-22T05:00:47.650Z,95.13
2022-10-22T05:05:49.160Z,95.52
2022-10-22T05:10:50.678Z,94.88
2022-10-22T05:15:52.250Z,95.22
2022-10-22T05:20:53.750Z,94.99
2022-10-22T05:25:55.241Z,94.37
2022-10-22T05:30:58.123Z,94.49
2022-10-22T05:36:00.968Z,94.09
2022-10-22T05:41:10.868Z,95.25
2022-10-22T05:46:18.682Z,95.47
2022-10-22T05:51:24.264Z,94.81
2022-10-22T05:56:27.275Z,94.34
2022-10-22T06:01:33.571Z,94.13
2022-10-22T06:06:41.990Z,93.93
2022-10-22T06:11:43.658Z,94.23
2022-10-22T06:16:45.307Z,94.91
2022-10-22T06:21:47.582Z,94.56
2022-10-22T06:26:52.549Z,93.37
2022-10-22T06:31:54.087Z,93.16
2022-10-22T06:36:55.591Z,93.01
2022-10-22T06:41:57.142Z,93.41
2022-10-22T06:46:58.674Z,94.43
2022-10-22T06:52:00.219Z,93.64
2022-10-22T06:57:01.777Z,93.84
2022-10-22T07:02:03.323Z,93.09
2022-10-22T07:07:04.851Z,94.50
2022-10-22T07:12:06.651Z,93.45
2022-10-22T07:17:08.151Z,93.03
2022-10-22T07:22:09.686Z,93.59
2022-10-22T07:27:11.899Z,93.11
2022-10-22T07:32:13.519Z,92.82
2022-10-22T07:37:15.048Z,92.76
2022-10-22T07:42:16.776Z,93.13
2022-10-22T07:47:18.351Z,93.80
2022-10-22T07:52:19.859Z,94.12
2022-10-22T07:57:21.372Z,94.79
2022-10-22T08:02:22.863Z,96.40
2022-10-22T08:07:24.368Z,96.73
2022-10-22T08:12:26.529Z,97.43
2022-10-22T08:17:28.277Z,98.16
2022-10-22T08:22:29.774Z,99.23
2022-10-22T08:27:31.247Z,100.00
2022-10-22T08:32:32.780Z,100.00
2022-10-22T08:37:34.435Z,100.00
2022-10-22T08:42:58.945Z,100.00
2022-10-22T08:48:06.447Z,100.00
2022-10-22T08:53:17.613Z,100.00
2022-10-22T08:58:34.192Z,100.00
2022-10-22T09:03:57.650Z,100.00
2022-10-22T09:09:00.333Z,100.00
2022-10-22T09:14:02.941Z,100.00
2022-10-22T09:19:28.864Z,100.00
2022-10-22T09:24:40.298Z,100.00
2022-10-22T09:29:41.914Z,100.00
2022-10-22T09:34:47.912Z,100.00
2022-10-22T09:39:52.402Z,100.00
2022-10-22T09:44:58.046Z,100.00
2022-10-22T09:50:18.159Z,100.00
2022-10-22T09:55:19.929Z,100.00
2022-10-22T10:00:24.930Z,100.00
2022-10-22T10:05:32.010Z,100.00
2022-10-22T10:10:50.237Z,100.00
2022-10-22T10:16:17.830Z,100.00
2022-10-22T10:21:45.021Z,100.00
2022-10-22T10:26:48.690Z,100.00
2022-10-22T10:32:27.738Z,100.00
2022-10-22T10:37:40.762Z,99.87
2022-10-22T10:43:13.936Z,100.00
2022-10-22T10:48:27.610Z,99.16
2022-10-22T10:53:51.410Z,100.00
2022-10-22T10:59:04.149Z,100.00
2022-10-22T11:04:24.149Z,100.00
2022-10-22T11:09:33.494Z,100.00
2022-10-22T11:14:53.217Z,99.79
2022-10-22T11:20:05.015Z,100.00
2022-10-22T11:25:06.613Z,100.00
2022-10-22T11:30:19.877Z,100.00
2022-10-22T11:35:27.123Z,100.00
2022-10-22T11:40:28.634Z,100.00
2022-10-22T11:45:35.038Z,100.00
2022-10-22T11:50:54.249Z,100.00
2022-10-22T11:56:07.961Z,100.00
2022-10-22T12:01:09.389Z,100.00
2022-10-22T12:06:15.393Z,99.80
2022-10-22T12:11:25.205Z,100.00
2022-10-22T12:16:37.709Z,100.00
2022-10-22T12:22:08.034Z,100.00
2022-10-22T12:27:24.735Z,100.00
2022-10-22T12:32:37.393Z,100.00
2022-10-22T12:37:39.116Z,100.00
2022-10-22T12:42:47.982Z,100.00
2022-10-22T12:47:56.798Z,100.00
2022-10-22T12:52:58.861Z,100.00
2022-10-22T12:58:00.437Z,100.00
2022-10-22T13:03:05.645Z,100.00
2022-10-22T13:08:17.382Z,100.00
2022-10-22T13:13:48.518Z,100.00
2022-10-22T13:18:51.726Z,100.00
2022-10-22T13:23:55.155Z,100.00
2022-10-22T13:28:58.104Z,100.00
2022-10-22T13:34:05.025Z,96.09
2022-10-22T13:39:17.424Z,94.25
2022-10-22T13:44:19.840Z,94.41
2022-10-22T13:49:23.383Z,94.21
2022-10-22T13:54:25.025Z,93.25
2022-10-22T13:59:26.514Z,93.53
2022-10-22T14:04:28.101Z,93.28
2022-10-22T14:09:29.636Z,92.84
2022-10-22T14:14:31.130Z,92.29
2022-10-22T14:19:32.657Z,91.91
2022-10-22T14:24:34.193Z,90.62
2022-10-22T14:29:35.704Z,89.74
2022-10-22T14:34:37.185Z,90.16
2022-10-22T14:39:39.549Z,89.92
2022-10-22T14:44:41.196Z,90.06
2022-10-22T14:49:42.700Z,90.19
2022-10-22T14:54:44.236Z,90.13
2022-10-22T14:59:45.793Z,90.37
2022-10-22T15:04:48.454Z,89.51
2022-10-22T15:09:50.396Z,89.34
2022-10-22T15:14:51.977Z,89.16
2022-10-22T15:19:53.865Z,89.39
2022-10-22T15:24:55.348Z,89.39
2022-10-22T15:29:58.913Z,89.53
2022-10-22T15:35:01.730Z,89.29
2022-10-22T15:40:05.353Z,89.14
2022-10-22T15:45:07.410Z,89.23
2022-10-22T15:50:09.061Z,89.07
2022-10-22T16:00:17.865Z,89.35
2022-10-22T16:05:19.976Z,89.55
2022-10-22T16:10:21.487Z,90.12
2022-10-22T16:15:22.968Z,90.25
2022-10-22T16:20:24.481Z,91.67
2022-10-22T16:25:26.083Z,93.22
2022-10-22T16:30:27.624Z,95.40
2022-10-22T16:35:29.940Z,97.11
2022-10-22T16:40:31.560Z,98.06
2022-10-22T16:45:33.199Z,99.38
2022-10-22T16:50:34.740Z,100.00
2022-10-22T16:55:37.368Z,100.00
2022-10-22T17:00:42.119Z,100.00
2022-10-22T17:05:43.620Z,100.00
2022-10-22T17:10:45.156Z,100.00
2022-10-22T17:15:46.728Z,100.00
2022-10-22T17:20:48.266Z,100.00
2022-10-22T17:25:49.742Z,100.00
2022-10-22T17:30:51.318Z,100.00
2022-10-22T17:35:52.794Z,100.00
2022-10-22T17:40:54.591Z,100.00
2022-10-22T17:46:26.015Z,100.00
2022-10-22T17:51:29.203Z,100.00
2022-10-22T17:56:30.785Z,100.00
2022-10-22T18:01:34.760Z,100.00
2022-10-22T18:06:36.359Z,100.00
2022-10-22T18:11:38.814Z,100.00
2022-10-22T18:16:40.348Z,100.00
2022-10-22T18:21:41.852Z,100.00
2022-10-22T18:26:43.637Z,100.00
2022-10-22T18:31:45.560Z,100.00
2022-10-22T18:36:47.074Z,100.00
2022-10-22T18:41:48.738Z,100.00
2022-10-22T18:46:50.495Z,100.00
2022-10-22T18:51:54.731Z,100.00
2022-10-22T18:57:02.515Z,100.00
2022-10-22T19:02:04.520Z,100.00
2022-10-22T19:07:06.205Z,100.00
2022-10-22T19:12:08.987Z,100.00
2022-10-22T19:17:10.526Z,100.00
2022-10-22T19:22:12.843Z,100.00
2022-10-22T19:27:14.369Z,100.00
2022-10-22T19:32:17.571Z,100.00
2022-10-22T19:37:19.179Z,100.00
2022-10-22T19:42:20.841Z,100.00
2022-10-22T19:47:22.382Z,100.00
2022-10-22T19:52:23.925Z,100.00
2022-10-22T19:57:25.475Z,100.00
2022-10-22T20:02:26.965Z,100.00
2022-10-22T20:07:29.161Z,100.00
2022-10-22T20:12:30.649Z,100.00
2022-10-22T20:17:32.283Z,99.98
2022-10-22T20:22:33.760Z,100.00
2022-10-22T20:27:35.287Z,99.72
2022-10-22T20:32:38.142Z,100.00
2022-10-22T20:37:39.674Z,100.00
2022-10-22T20:42:41.343Z,100.00
2022-10-22T20:47:51.296Z,100.00
2022-10-22T20:52:53.518Z,100.00
2022-10-22T20:57:55.189Z,100.00
2022-10-22T21:02:56.805Z,99.49
2022-10-22T21:07:58.509Z,99.37
2022-10-22T21:12:59.991Z,100.00
2022-10-22T21:18:01.507Z,99.71
2022-10-22T21:23:03.024Z,99.64
2022-10-22T21:28:04.693Z,99.64
2022-10-22T21:33:06.168Z,99.13
2022-10-22T21:38:07.941Z,99.49
2022-10-22T21:43:09.517Z,99.46
2022-10-22T21:48:12.580Z,99.19
2022-10-22T21:53:14.125Z,98.96
2022-10-22T21:58:15.619Z,98.99
2022-10-22T22:03:17.133Z,98.85
2022-10-22T22:08:18.872Z,98.16
2022-10-22T22:13:24.840Z,98.29
2022-10-22T22:18:26.358Z,98.44
2022-10-22T22:23:27.910Z,98.22
2022-10-22T22:28:30.408Z,98.44
2022-10-22T22:33:31.900Z,98.82
2022-10-22T22:38:33.463Z,98.84
2022-10-22T22:43:35.810Z,98.55
2022-10-22T22:48:37.374Z,98.22
2022-10-22T22:53:38.939Z,99.18
2022-10-22T22:58:41.217Z,100.00
2022-10-22T23:03:44.222Z,99.13
2022-10-22T23:08:49.282Z,99.51
2022-10-22T23:14:02.951Z,100.00
2022-10-22T23:19:05.136Z,99.28
2022-10-22T23:24:09.005Z,98.83
2022-10-22T23:29:13.620Z,99.60
2022-10-22T23:39:22.109Z,98.94
2022-10-22T23:44:24.351Z,99.30
2022-10-22T23:49:25.866Z,98.99
2022-10-22T23:54:27.686Z,98.88
2022-10-22T23:59:29.209Z,99.66
